Time;durP1;ratioP1;P1;durP2;ratioP2;P2;SDS_P1;SDS_P2;PMS_P1;PMS_P2;Temp;Humidity;BMP_temperature;BMP_pressure;BME280_temperature;BME280_humidity;BME280_pressure;Samples;Min_cycle;Max_cycle;Signal;HPM_P1;HPM_P2
2021/07/22 00:00:42;;;;;;;59.25;41.08;;;19.50;75.90;;;;;;5030161;28;20106;-70
2021/07/22 00:03:07;;;;;;;58.50;40.35;;;19.50;75.90;;;;;;5031336;28;20040;-71
2021/07/22 00:05:33;;;;;;;56.25;40.33;;;19.50;76.00;;;;;;5033101;28;20318;-72
2021/07/22 00:08:00;;;;;;;65.20;44.53;;;19.50;76.00;;;;;;5030261;28;20057;-69
2021/07/22 00:10:26;;;;;;;60.28;40.65;;;19.50;76.00;;;;;;5031971;28;20044;-70
2021/07/22 00:12:52;;;;;;;58.67;41.22;;;19.50;76.00;;;;;;5036540;28;20041;-70
2021/07/22 00:15:17;;;;;;;61.33;42.10;;;19.40;76.20;;;;;;5026098;28;20503;-70
2021/07/22 00:17:43;;;;;;;57.05;40.28;;;19.40;76.20;;;;;;5024636;28;20388;-70
2021/07/22 00:20:09;;;;;;;58.08;41.80;;;19.50;76.00;;;;;;5033283;28;20054;-71
2021/07/22 00:22:37;;;;;;;59.60;41.28;;;19.40;76.00;;;;;;5029567;28;20029;-70
2021/07/22 00:25:06;;;;;;;60.70;40.67;;;19.40;76.10;;;;;;5029613;28;20565;-69
2021/07/22 00:27:32;;;;;;;63.08;43.80;;;19.40;76.20;;;;;;5025753;28;20068;-71
2021/07/22 00:29:58;;;;;;;58.25;40.40;;;19.40;76.10;;;;;;5026104;28;20059;-72
2021/07/22 00:32:23;;;;;;;58.20;38.83;;;19.40;76.20;;;;;;5027413;28;20077;-70
2021/07/22 00:34:49;;;;;;;56.35;37.63;;;19.30;76.30;;;;;;5029138;28;20025;-70
2021/07/22 00:37:15;;;;;;;59.97;41.20;;;19.40;76.50;;;;;;5026628;28;20045;-69
2021/07/22 00:39:41;;;;;;;53.40;39.50;;;19.30;76.60;;;;;;5026683;28;20046;-70
2021/07/22 00:42:06;;;;;;;64.35;41.33;;;19.30;76.60;;;;;;5028223;28;20049;-71
2021/07/22 00:44:32;;;;;;;59.78;41.17;;;19.20;76.70;;;;;;5028642;28;20037;-70
2021/07/22 00:46:58;;;;;;;64.35;43.72;;;19.10;76.70;;;;;;5031291;28;20041;-71
2021/07/22 00:49:23;;;;;;;60.67;42.85;;;19.10;76.90;;;;;;5031992;28;20147;-70
2021/07/22 00:51:49;;;;;;;58.60;42.60;;;19.10;77.20;;;;;;5035110;28;20377;-71
2021/07/22 00:54:14;;;;;;;59.53;40.90;;;19.00;77.30;;;;;;5024766;28;20040;-71
2021/07/22 00:56:40;;;;;;;65.28;44.33;;;19.10;77.50;;;;;;5029208;28;20487;-70
2021/07/22 00:59:06;;;;;;;61.20;43.03;;;19.10;77.50;;;;;;5031926;28;20052;-70
2021/07/22 01:01:32;;;;;;;63.03;42.67;;;19.00;77.40;;;;;;5031216;28;20046;-70
2021/07/22 01:03:58;;;;;;;64.75;44.63;;;19.00;77.60;;;;;;5029059;28;20049;-70
2021/07/22 01:06:23;;;;;;;69.60;47.00;;;19.00;77.60;;;;;;5034004;28;20353;-71
2021/07/22 01:08:49;;;;;;;62.58;42.45;;;19.10;77.50;;;;;;5032595;28;20033;-69
2021/07/22 01:11:16;;;;;;;60.97;41.92;;;19.00;77.50;;;;;;5031933;28;20033;-69
2021/07/22 01:13:41;;;;;;;62.97;45.25;;;19.00;77.50;;;;;;5029259;28;20046;-69
2021/07/22 01:16:07;;;;;;;65.18;44.00;;;19.10;77.50;;;;;;5029873;28;20087;-71
2021/07/22 01:18:33;;;;;;;64.53;45.13;;;19.00;77.60;;;;;;5033563;28;20112;-71
2021/07/22 01:20:59;;;;;;;61.80;42.97;;;19.00;77.70;;;;;;5028597;28;20041;-72
2021/07/22 01:23:24;;;;;;;63.85;45.40;;;19.00;77.90;;;;;;5028912;28;20029;-71
2021/07/22 01:25:51;;;;;;;67.63;48.35;;;18.90;77.90;;;;;;5029156;28;20033;-71
2021/07/22 01:28:17;;;;;;;69.55;47.20;;;18.80;78.40;;;;;;5030750;28;20056;-69
2021/07/22 01:30:43;;;;;;;70.50;48.88;;;18.70;78.70;;;;;;5024279;28;20033;-71
2021/07/22 01:33:09;;;;;;;67.30;47.28;;;18.60;78.80;;;;;;5030595;28;20036;-71
2021/07/22 01:35:35;;;;;;;64.85;45.88;;;18.60;79.10;;;;;;5028286;28;20420;-70
2021/07/22 01:38:00;;;;;;;61.58;43.17;;;18.60;79.10;;;;;;5030340;28;20037;-73
2021/07/22 01:40:26;;;;;;;69.65;45.63;;;18.70;79.10;;;;;;5024770;28;20045;-69
2021/07/22 01:42:51;;;;;;;62.47;43.17;;;18.70;78.90;;;;;;5023426;28;20060;-71
2021/07/22 01:45:17;;;;;;;62.67;43.53;;;18.70;78.90;;;;;;5026322;28;20064;-69
2021/07/22 01:47:43;;;;;;;61.58;44.92;;;18.70;78.90;;;;;;5027452;28;20091;-70
2021/07/22 01:50:09;;;;;;;63.53;44.75;;;18.70;78.80;;;;;;5024281;28;20055;-73
2021/07/22 01:52:35;;;;;;;68.80;46.00;;;18.70;78.80;;;;;;5025320;28;20395;-71
2021/07/22 01:55:01;;;;;;;65.72;45.67;;;18.70;78.80;;;;;;5031162;28;20037;-70
2021/07/22 01:57:27;;;;;;;72.65;50.28;;;18.60;78.90;;;;;;5021420;28;20036;-70
2021/07/22 01:59:53;;;;;;;71.22;50.45;;;18.60;79.00;;;;;;5035687;28;20033;-71
2021/07/22 02:02:19;;;;;;;68.90;48.80;;;18.50;79.60;;;;;;5027301;28;20200;-71
2021/07/22 02:04:44;;;;;;;65.43;46.42;;;18.40;79.90;;;;;;5027508;28;20045;-71
2021/07/22 02:07:11;;;;;;;67.43;46.15;;;18.50;80.00;;;;;;5029521;28;20555;-70
2021/07/22 02:09:37;;;;;;;65.10;46.05;;;18.50;79.60;;;;;;5036129;28;20036;-69
2021/07/22 02:12:03;;;;;;;68.03;47.28;;;18.50;79.50;;;;;;5027498;28;20030;-70
2021/07/22 02:14:29;;;;;;;66.60;45.08;;;18.50;79.50;;;;;;5034789;28;20083;-70
2021/07/22 02:16:55;;;;;;;64.80;44.35;;;18.40;79.50;;;;;;5028946;28;20092;-69
2021/07/22 02:19:21;;;;;;;63.67;44.88;;;18.30;79.70;;;;;;5029164;28;20042;-69
2021/07/22 02:21:46;;;;;;;69.82;46.50;;;18.30;79.80;;;;;;5032393;28;20049;-71
2021/07/22 02:24:15;;;;;;;64.82;46.05;;;18.20;79.90;;;;;;5028426;28;20123;-69
2021/07/22 02:26:41;;;;;;;66.55;45.28;;;18.20;80.10;;;;;;5030060;28;20034;-70
2021/07/22 02:29:08;;;;;;;64.32;46.25;;;18.20;80.30;;;;;;5034566;28;20037;-73
2021/07/22 02:31:34;;;;;;;67.65;49.35;;;18.10;80.60;;;;;;5039158;28;20399;-70
2021/07/22 02:34:00;;;;;;;75.75;51.05;;;18.10;81.40;;;;;;5027871;28;20033;-70
2021/07/22 02:36:25;;;;;;;70.10;49.05;;;17.90;82.20;;;;;;5035766;28;20523;-70
2021/07/22 02:38:51;;;;;;;77.10;50.92;;;17.90;82.70;;;;;;5030293;28;20116;-71
2021/07/22 02:41:17;;;;;;;70.18;49.13;;;17.80;82.90;;;;;;5028866;28;20076;-70
2021/07/22 02:43:42;;;;;;;75.22;51.30;;;17.80;83.10;;;;;;5031955;28;20042;-70
2021/07/22 02:46:11;;;;;;;72.35;50.70;;;17.80;83.20;;;;;;5041606;28;20037;-70
2021/07/22 02:48:37;;;;;;;71.20;49.47;;;17.70;83.30;;;;;;5032878;28;20046;-70
2021/07/22 02:51:05;;;;;;;74.15;49.47;;;17.70;83.20;;;;;;5023907;28;20030;-70
2021/07/22 02:53:31;;;;;;;70.85;49.28;;;17.70;83.20;;;;;;5030886;28;20053;-70
2021/07/22 02:55:57;;;;;;;66.80;46.92;;;17.70;83.30;;;;;;5034167;28;20029;-69
2021/07/22 02:58:23;;;;;;;75.85;50.60;;;17.70;83.30;;;;;;5029960;28;20026;-70
2021/07/22 03:00:49;;;;;;;70.53;49.15;;;17.70;82.90;;;;;;5023198;28;20098;-70
2021/07/22 03:03:14;;;;;;;72.03;47.58;;;17.70;82.80;;;;;;5035251;28;20033;-70
2021/07/22 03:05:40;;;;;;;74.70;48.83;;;17.70;82.80;;;;;;5028637;28;20033;-70
2021/07/22 03:08:06;;;;;;;70.78;48.53;;;17.70;82.70;;;;;;5032443;28;20478;-71
2021/07/22 03:10:31;;;;;;;72.18;49.38;;;17.70;82.60;;;;;;5029084;28;20686;-70
2021/07/22 03:12:57;;;;;;;74.32;50.90;;;17.70;82.60;;;;;;5027590;28;20395;-70
2021/07/22 03:15:23;;;;;;;77.80;50.03;;;17.60;82.60;;;;;;5019278;28;20461;-70
2021/07/22 03:17:49;;;;;;;70.95;49.40;;;17.60;82.60;;;;;;5024478;28;20029;-71
2021/07/22 03:20:15;;;;;;;74.07;49.08;;;17.70;82.70;;;;;;5028685;28;20056;-72
2021/07/22 03:22:41;;;;;;;69.25;50.20;;;17.60;82.70;;;;;;5024894;28;20048;-70
2021/07/22 03:25:07;;;;;;;72.57;48.50;;;17.60;82.80;;;;;;5021416;28;20038;-73
2021/07/22 03:27:33;;;;;;;76.07;51.08;;;17.60;82.90;;;;;;5023060;28;20120;-70
2021/07/22 03:29:59;;;;;;;68.75;48.38;;;17.60;82.80;;;;;;5030490;28;20568;-70
2021/07/22 03:32:24;;;;;;;70.45;48.22;;;17.60;82.80;;;;;;5020401;28;20030;-70
2021/07/22 03:34:50;;;;;;;78.50;52.80;;;17.60;82.90;;;;;;5025026;28;20500;-70
2021/07/22 03:37:15;;;;;;;72.65;50.08;;;17.50;82.90;;;;;;5020766;28;20096;-70
2021/07/22 03:39:41;;;;;;;75.60;50.30;;;17.50;83.00;;;;;;5027659;28;20439;-70
2021/07/22 03:42:07;;;;;;;74.43;51.08;;;17.50;83.00;;;;;;5029379;28;20590;-72
2021/07/22 03:44:33;;;;;;;76.03;51.95;;;17.50;83.10;;;;;;5028895;28;20115;-70
2021/07/22 03:46:59;;;;;;;77.43;53.90;;;17.50;83.10;;;;;;5029617;28;20051;-70
2021/07/22 03:49:25;;;;;;;78.47;52.47;;;17.60;83.10;;;;;;5026778;28;20112;-70
2021/07/22 03:51:54;;;;;;;78.00;53.30;;;17.60;83.00;;;;;;5034754;28;20037;-70
2021/07/22 03:54:20;;;;;;;79.45;54.83;;;17.60;83.00;;;;;;5029397;28;20049;-70
2021/07/22 03:56:46;;;;;;;79.60;54.58;;;17.60;83.20;;;;;;5034284;28;20377;-73
2021/07/22 03:59:13;;;;;;;79.15;53.83;;;17.60;83.10;;;;;;5029397;28;20091;-70
2021/07/22 04:01:39;;;;;;;84.93;59.17;;;17.60;83.20;;;;;;5043380;28;20044;-70
2021/07/22 04:04:04;;;;;;;79.20;57.90;;;17.40;83.40;;;;;;5029901;28;20078;-70
2021/07/22 04:06:34;;;;;;;86.97;57.90;;;17.50;83.30;;;;;;5033205;28;20026;-70
2021/07/22 04:08:59;;;;;;;82.10;56.30;;;17.50;83.10;;;;;;5028589;28;20036;-70
2021/07/22 04:11:25;;;;;;;85.40;55.97;;;17.50;83.20;;;;;;5028891;28;20461;-70
2021/07/22 04:13:50;;;;;;;88.65;59.58;;;17.50;83.30;;;;;;5030782;28;20048;-70
2021/07/22 04:16:16;;;;;;;85.38;58.38;;;17.60;83.20;;;;;;5031858;28;20097;-71
2021/07/22 04:18:42;;;;;;;87.97;58.50;;;17.60;83.20;;;;;;5029281;28;20037;-71
2021/07/22 04:21:07;;;;;;;91.10;61.03;;;17.60;83.20;;;;;;5024951;28;20115;-70
2021/07/22 04:23:33;;;;;;;90.13;58.13;;;17.60;83.20;;;;;;5030410;28;20082;-70
2021/07/22 04:25:59;;;;;;;89.40;60.95;;;17.60;83.20;;;;;;5030680;28;20045;-70
2021/07/22 04:28:24;;;;;;;87.35;58.40;;;17.70;83.20;;;;;;5026679;28;20041;-70
2021/07/22 04:30:50;;;;;;;84.82;58.40;;;17.70;83.00;;;;;;5028647;28;20407;-70
2021/07/22 04:33:16;;;;;;;82.68;56.65;;;17.80;82.80;;;;;;5034578;28;20063;-70
2021/07/22 04:35:41;;;;;;;91.15;61.60;;;17.80;82.80;;;;;;5030107;28;20436;-69
2021/07/22 04:38:07;;;;;;;95.05;62.55;;;17.80;82.60;;;;;;5028477;28;20060;-71
2021/07/22 04:40:33;;;;;;;88.63;58.97;;;17.90;82.50;;;;;;5034894;28;20080;-70
2021/07/22 04:43:01;;;;;;;95.53;64.05;;;17.90;82.50;;;;;;5031444;28;20469;-71
2021/07/22 04:45:27;;;;;;;91.45;63.08;;;18.00;82.40;;;;;;5039473;28;20033;-71
2021/07/22 04:47:53;;;;;;;91.45;63.33;;;18.10;82.40;;;;;;5036093;28;20073;-70
2021/07/22 04:50:19;;;;;;;92.63;64.95;;;18.10;82.30;;;;;;5030869;28;20060;-70
2021/07/22 04:52:44;;;;;;;105.15;71.75;;;18.20;82.20;;;;;;5025314;28;20034;-70
2021/07/22 04:55:10;;;;;;;100.70;70.30;;;18.10;82.50;;;;;;5030448;28;20033;-70
2021/07/22 04:57:36;;;;;;;97.68;67.78;;;18.20;82.60;;;;;;5027584;28;20033;-70
2021/07/22 05:00:06;;;;;;;89.22;63.17;;;18.20;82.60;;;;;;5036909;28;20033;-71
2021/07/22 05:02:32;;;;;;;84.95;62.50;;;18.20;82.40;;;;;;5029764;28;20104;-70
2021/07/22 05:04:58;;;;;;;92.40;62.85;;;18.20;82.20;;;;;;5032664;28;20172;-70
2021/07/22 05:07:23;;;;;;;93.35;64.63;;;18.30;82.10;;;;;;5027365;28;20049;-71
2021/07/22 05:09:49;;;;;;;95.15;66.78;;;18.40;82.00;;;;;;5021254;28;20389;-70
2021/07/22 05:12:15;;;;;;;95.32;67.22;;;18.50;82.20;;;;;;5028216;28;20483;-70
2021/07/22 05:14:41;;;;;;;110.47;74.10;;;18.50;82.30;;;;;;5020013;28;20045;-69
2021/07/22 05:17:07;;;;;;;105.43;72.05;;;18.50;82.50;;;;;;5024475;28;20036;-70
2021/07/22 05:19:32;;;;;;;105.00;73.47;;;18.60;82.70;;;;;;5027501;28;20107;-70
2021/07/22 05:21:58;;;;;;;111.90;74.55;;;18.50;82.90;;;;;;5025888;28;20121;-71
2021/07/22 05:24:24;;;;;;;114.25;78.18;;;18.50;83.00;;;;;;5023327;28;20053;-70
2021/07/22 05:26:50;;;;;;;110.18;74.57;;;18.60;83.00;;;;;;5022318;28;20033;-70
2021/07/22 05:29:16;;;;;;;110.07;74.55;;;18.80;83.20;;;;;;5030640;28;20104;-69
2021/07/22 05:31:43;;;;;;;104.75;73.43;;;19.40;81.20;;;;;;5025819;28;20040;-72
2021/07/22 05:34:10;;;;;;;97.43;67.65;;;20.00;78.70;;;;;;5023263;28;20147;-70
2021/07/22 05:36:36;;;;;;;98.93;68.22;;;20.50;77.10;;;;;;5029573;28;20404;-70
2021/07/22 05:39:03;;;;;;;91.20;62.97;;;20.90;75.30;;;;;;5030137;28;20112;-72
2021/07/22 05:41:28;;;;;;;95.18;65.63;;;21.40;74.20;;;;;;5029617;28;20045;-70
2021/07/22 05:43:54;;;;;;;84.07;58.58;;;21.80;71.60;;;;;;5028578;28;20087;-70
2021/07/22 05:46:21;;;;;;;81.95;59.72;;;22.00;71.50;;;;;;5026216;28;20476;-70
2021/07/22 05:48:47;;;;;;;86.22;58.38;;;22.50;69.70;;;;;;5032879;28;20044;-71
2021/07/22 05:51:13;;;;;;;87.20;58.25;;;22.60;69.10;;;;;;5023919;28;20029;-70
2021/07/22 05:53:39;;;;;;;88.50;59.72;;;22.60;68.90;;;;;;5026950;28;20045;-69
2021/07/22 05:56:05;;;;;;;87.43;57.40;;;22.50;69.20;;;;;;5027646;28;20120;-69
2021/07/22 05:58:31;;;;;;;81.35;57.65;;;22.10;70.00;;;;;;5027296;28;20045;-70
2021/07/22 06:00:57;;;;;;;79.13;56.17;;;22.30;69.40;;;;;;5030235;28;20041;-69
2021/07/22 06:03:22;;;;;;;81.32;55.67;;;22.10;69.80;;;;;;5030256;28;20243;-70
2021/07/22 06:05:48;;;;;;;80.68;57.40;;;21.70;70.80;;;;;;5035871;28;20041;-70
2021/07/22 06:08:14;;;;;;;82.68;57.00;;;21.00;73.40;;;;;;5033701;28;20138;-74
2021/07/22 06:10:40;;;;;;;81.55;56.50;;;20.60;75.10;;;;;;5027475;28;20033;-70
2021/07/22 06:13:06;;;;;;;76.97;53.15;;;20.40;76.10;;;;;;5032786;28;20053;-70
2021/07/22 06:15:32;;;;;;;82.00;57.17;;;20.30;76.70;;;;;;5034278;28;20041;-71
2021/07/22 06:17:57;;;;;;;83.22;56.10;;;20.10;76.90;;;;;;5020346;28;20029;-71
2021/07/22 06:20:23;;;;;;;80.38;54.50;;;20.20;77.50;;;;;;5026599;28;20044;-71
2021/07/22 06:22:48;;;;;;;77.63;52.10;;;20.20;77.00;;;;;;5034009;28;20029;-70
2021/07/22 06:25:15;;;;;;;79.78;53.65;;;20.10;77.40;;;;;;5030217;28;20362;-71
2021/07/22 06:27:44;;;;;;;76.07;53.17;;;20.00;77.90;;;;;;5033692;28;20041;-71
2021/07/22 06:30:11;;;;;;;74.45;52.50;;;20.10;77.30;;;;;;5031667;28;20033;-71
2021/07/22 06:32:37;;;;;;;70.32;48.83;;;20.30;77.20;;;;;;5026857;28;20055;-70
2021/07/22 06:35:04;;;;;;;70.05;48.55;;;20.50;75.90;;;;;;5018504;28;20489;-70
2021/07/22 06:37:48;;;;;;;69.28;45.22;;;20.50;75.70;;;;;;5021616;28;20381;-70
2021/07/22 06:40:14;;;;;;;63.67;45.10;;;20.60;75.40;;;;;;5022565;28;20048;-71
2021/07/22 06:42:41;;;;;;;63.20;45.80;;;20.70;74.80;;;;;;5024753;28;20038;-72
2021/07/22 06:45:07;;;;;;;60.83;44.35;;;20.80;75.10;;;;;;5023388;28;20037;-70
2021/07/22 06:47:37;;;;;;;54.53;39.42;;;20.90;74.30;;;;;;5019886;28;20369;-70
2021/07/22 06:50:02;;;;;;;56.03;38.65;;;21.00;73.20;;;;;;5013663;28;20447;-70
2021/07/22 06:52:28;;;;;;;54.33;38.95;;;21.00;73.50;;;;;;5018312;28;20530;-69
2021/07/22 06:54:54;;;;;;;53.13;37.88;;;21.10;72.70;;;;;;5014648;28;20057;-69
2021/07/22 06:57:19;;;;;;;47.78;36.13;;;21.20;73.30;;;;;;5025998;28;20075;-69
2021/07/22 06:59:45;;;;;;;49.97;35.45;;;21.20;72.40;;;;;;5020052;28;20042;-71
2021/07/22 07:02:11;;;;;;;45.88;33.78;;;21.10;72.10;;;;;;5014310;28;20037;-68
2021/07/22 07:04:36;;;;;;;45.35;34.13;;;21.00;72.00;;;;;;5025416;28;20457;-69
2021/07/22 07:07:02;;;;;;;48.35;35.00;;;21.00;72.30;;;;;;5027145;28;20068;-69
2021/07/22 07:09:28;;;;;;;48.05;33.60;;;21.10;72.60;;;;;;5033559;28;20172;-68
2021/07/22 07:11:53;;;;;;;43.60;32.58;;;21.30;72.70;;;;;;5031491;28;20548;-69
2021/07/22 07:14:19;;;;;;;43.13;30.70;;;21.60;71.30;;;;;;5034509;28;20025;-69
2021/07/22 07:16:44;;;;;;;38.40;28.10;;;21.60;70.50;;;;;;5030398;28;20029;-68
2021/07/22 07:19:10;;;;;;;39.80;29.42;;;21.70;70.50;;;;;;5027998;28;20144;-68
2021/07/22 07:21:37;;;;;;;38.47;28.02;;;22.00;69.70;;;;;;5030492;28;20095;-69
2021/07/22 07:24:04;;;;;;;38.20;27.23;;;22.10;68.60;;;;;;5032072;28;20049;-69
2021/07/22 07:26:30;;;;;;;39.42;28.63;;;22.10;67.80;;;;;;5035871;28;20063;-70
2021/07/22 07:28:55;;;;;;;37.17;27.88;;;22.10;68.10;;;;;;5039177;28;20089;-68
2021/07/22 07:31:22;;;;;;;37.33;27.35;;;22.10;68.30;;;;;;5019485;28;20045;-69
2021/07/22 07:33:48;;;;;;;35.47;25.88;;;22.10;68.20;;;;;;5034953;28;20033;-68
2021/07/22 07:36:14;;;;;;;35.00;26.33;;;22.30;68.80;;;;;;5034194;28;20052;-69
2021/07/22 07:38:40;;;;;;;36.05;26.42;;;22.60;67.40;;;;;;5033250;28;20041;-70
2021/07/22 07:41:05;;;;;;;34.17;26.42;;;22.60;66.30;;;;;;5028398;28;20396;-69
2021/07/22 07:43:31;;;;;;;33.67;25.40;;;22.60;67.10;;;;;;5033667;28;20044;-69
2021/07/22 07:45:57;;;;;;;33.33;24.83;;;22.60;67.00;;;;;;5033942;28;20076;-68
2021/07/22 07:48:22;;;;;;;32.38;24.45;;;22.60;66.90;;;;;;5036162;28;20099;-68
2021/07/22 07:50:48;;;;;;;33.50;24.30;;;22.60;67.40;;;;;;5032797;28;20527;-70
2021/07/22 07:53:16;;;;;;;31.58;23.48;;;22.80;65.60;;;;;;5030655;28;20056;-70
2021/07/22 07:55:42;;;;;;;32.33;24.48;;;22.80;67.30;;;;;;5034437;28;20385;-69
2021/07/22 07:58:08;;;;;;;33.47;24.58;;;22.90;65.90;;;;;;5030660;28;20037;-69
2021/07/22 08:00:34;;;;;;;33.60;25.40;;;22.90;66.60;;;;;;5031087;28;20051;-69
2021/07/22 08:03:00;;;;;;;35.83;24.67;;;23.00;65.10;;;;;;5030501;28;20077;-68
2021/07/22 08:05:27;;;;;;;30.90;23.02;;;23.20;64.80;;;;;;5031278;28;20065;-68
2021/07/22 08:07:52;;;;;;;34.25;24.58;;;23.30;64.40;;;;;;5032075;28;20029;-69
2021/07/22 08:10:18;;;;;;;32.63;23.98;;;23.30;64.10;;;;;;5031321;28;20044;-69
2021/07/22 08:12:44;;;;;;;33.50;24.33;;;23.10;65.40;;;;;;5024199;28;20044;-68
2021/07/22 08:15:11;;;;;;;34.63;23.67;;;23.10;66.10;;;;;;5026212;28;20037;-69
2021/07/22 08:17:37;;;;;;;38.22;24.23;;;23.30;64.30;;;;;;5018871;28;20188;-68
2021/07/22 08:20:06;;;;;;;32.95;24.27;;;23.50;64.00;;;;;;5024982;28;20048;-68
2021/07/22 08:22:35;;;;;;;37.83;26.20;;;23.60;64.50;;;;;;5025122;28;20041;-68
2021/07/22 08:25:00;;;;;;;32.47;23.70;;;23.70;63.80;;;;;;5030797;28;20037;-68
2021/07/22 08:27:27;;;;;;;32.35;22.95;;;23.50;64.50;;;;;;5029409;28;20224;-68
2021/07/22 08:29:54;;;;;;;30.70;22.02;;;23.40;64.20;;;;;;5029511;28;20112;-68
2021/07/22 08:32:20;;;;;;;33.97;23.67;;;23.60;63.30;;;;;;5027221;28;20072;-71
2021/07/22 08:34:46;;;;;;;34.70;23.23;;;23.50;63.70;;;;;;5030509;28;20038;-68
2021/07/22 08:37:12;;;;;;;32.20;23.33;;;23.50;64.50;;;;;;5029224;28;20102;-68
2021/07/22 08:39:43;;;;;;;32.38;23.45;;;23.50;64.50;;;;;;5027065;28;20562;-69
2021/07/22 08:42:11;;;;;;;30.70;22.23;;;23.80;64.30;;;;;;5028620;28;20042;-68
2021/07/22 08:44:39;;;;;;;28.15;20.80;;;23.80;65.20;;;;;;5032691;28;20619;-69
2021/07/22 08:47:05;;;;;;;26.15;19.90;;;24.00;64.00;;;;;;5030147;28;20059;-68
2021/07/22 08:49:33;;;;;;;28.80;20.27;;;24.40;61.90;;;;;;5029952;28;20065;-69
2021/07/22 08:52:00;;;;;;;27.48;18.45;;;24.50;61.70;;;;;;5017933;28;20045;-69
2021/07/22 08:54:26;;;;;;;26.63;19.23;;;24.50;62.70;;;;;;5024184;28;20627;-68
2021/07/22 08:56:54;;;;;;;25.73;18.92;;;24.60;60.90;;;;;;5028539;28;20037;-68
2021/07/22 08:59:22;;;;;;;18.80;12.82;;;24.70;62.10;;;;;;5027728;28;20531;-70
2021/07/22 09:01:51;;;;;;;20.35;14.75;;;24.50;59.10;;;;;;5017560;28;20042;-68
2021/07/22 09:04:16;;;;;;;19.80;14.80;;;24.30;58.70;;;;;;5025509;28;20030;-69
2021/07/22 09:06:42;;;;;;;20.42;13.95;;;24.50;58.40;;;;;;5028236;28;20451;-68
2021/07/22 09:09:16;;;;;;;18.05;13.30;;;24.50;58.90;;;;;;5030930;28;20039;-68
2021/07/22 09:11:58;;;;;;;19.48;12.95;;;24.60;59.60;;;;;;5032549;28;20046;-68
2021/07/22 09:14:25;;;;;;;19.38;13.45;;;24.60;58.80;;;;;;5017226;28;20030;-68
2021/07/22 09:16:51;;;;;;;21.73;14.73;;;24.70;58.30;;;;;;5030162;28;20057;-67
2021/07/22 09:19:34;;;;;;;17.75;11.32;;;24.80;57.80;;;;;;5034793;28;20071;-68
2021/07/22 09:22:01;;;;;;;15.82;11.93;;;24.60;56.60;;;;;;5031776;28;20065;-68
2021/07/22 09:24:26;;;;;;;21.63;13.93;;;24.80;55.90;;;;;;5026425;28;20034;-68
2021/07/22 09:26:53;;;;;;;18.27;12.13;;;24.80;57.90;;;;;;5031792;28;20195;-68
2021/07/22 09:29:19;;;;;;;19.13;12.88;;;25.00;59.10;;;;;;5019339;28;20052;-69
2021/07/22 09:31:46;;;;;;;19.00;13.82;;;25.00;56.70;;;;;;5023912;28;20042;-69
2021/07/22 09:34:16;;;;;;;19.48;14.50;;;25.00;58.60;;;;;;5032322;28;20126;-69
2021/07/22 09:36:42;;;;;;;20.85;14.43;;;25.10;58.70;;;;;;5015989;28;20041;-69
2021/07/22 09:39:22;;;;;;;18.85;13.15;;;25.10;58.40;;;;;;5025114;28;20044;-69
2021/07/22 09:42:07;;;;;;;19.42;14.18;;;25.30;58.40;;;;;;5021351;28;20046;-69
2021/07/22 09:44:36;;;;;;;;;;;25.10;58.40;;;;;;5017947;28;20042;-67
2021/07/22 09:47:04;;;;;;;16.88;10.30;;;25.30;57.70;;;;;;5023749;28;19913;-68
2021/07/22 09:49:36;;;;;;;17.05;10.93;;;25.60;55.40;;;;;;5023870;28;20477;-69
2021/07/22 09:52:10;;;;;;;14.98;9.55;;;25.60;55.50;;;;;;5020209;28;20037;-69
2021/07/22 09:54:37;;;;;;;14.82;10.43;;;25.50;53.90;;;;;;5019827;28;20042;-71
2021/07/22 09:57:12;;;;;;;16.45;11.10;;;25.40;56.20;;;;;;5023202;28;20044;-68
2021/07/22 09:59:38;;;;;;;16.33;11.43;;;25.50;56.10;;;;;;5020206;28;20118;-68
2021/07/22 10:02:06;;;;;;;15.82;10.45;;;25.40;57.20;;;;;;5016468;28;20065;-69
2021/07/22 10:04:33;;;;;;;13.35;8.85;;;25.50;56.40;;;;;;5023936;28;20702;-69
2021/07/22 10:07:02;;;;;;;15.60;8.45;;;25.60;55.90;;;;;;5019362;28;20172;-70
2021/07/22 10:09:33;;;;;;;14.68;10.02;;;25.70;54.20;;;;;;5021858;28;20142;-69
2021/07/22 10:12:01;;;;;;;12.18;8.77;;;25.30;56.50;;;;;;5020895;28;20366;-69
2021/07/22 10:14:28;;;;;;;13.45;8.82;;;25.50;55.30;;;;;;5025155;28;20124;-68
2021/07/22 10:16:57;;;;;;;13.10;8.05;;;25.80;53.90;;;;;;5027007;28;20523;-68
2021/07/22 10:19:25;;;;;;;13.30;8.45;;;25.70;54.90;;;;;;5025704;28;20171;-69
2021/07/22 10:21:51;;;;;;;12.85;9.52;;;26.20;54.30;;;;;;5028663;28;20489;-68
2021/07/22 10:24:18;;;;;;;13.63;9.68;;;26.10;53.90;;;;;;5031040;28;20029;-69
2021/07/22 10:26:45;;;;;;;14.20;9.45;;;26.00;54.90;;;;;;5022676;28;20042;-70
2021/07/22 10:29:11;;;;;;;13.40;9.20;;;26.10;55.70;;;;;;5028909;28;20033;-69
2021/07/22 10:31:42;;;;;;;13.70;9.48;;;26.50;54.70;;;;;;5028409;28;20461;-69
2021/07/22 10:34:11;;;;;;;16.05;8.68;;;26.10;53.90;;;;;;5029335;28;20500;-69
2021/07/22 10:36:40;;;;;;;11.65;8.32;;;26.20;52.80;;;;;;5030023;28;20038;-70
2021/07/22 10:39:06;;;;;;;13.05;7.75;;;26.50;54.30;;;;;;5031731;28;20210;-69
2021/07/22 10:41:40;;;;;;;10.65;6.72;;;26.60;51.10;;;;;;5030164;28;20487;-69
2021/07/22 10:44:14;;;;;;;13.40;7.57;;;26.30;50.40;;;;;;5029383;28;20120;-69
2021/07/22 10:47:00;;;;;;;10.85;7.15;;;26.40;50.50;;;;;;5029327;28;20492;-70
2021/07/22 10:49:40;;;;;;;11.40;7.45;;;26.40;50.40;;;;;;5020730;28;20076;-68
2021/07/22 10:52:06;;;;;;;10.32;6.90;;;26.50;49.60;;;;;;5031238;28;20056;-69
2021/07/22 10:54:43;;;;;;;10.65;7.72;;;26.50;49.40;;;;;;5028225;28;20113;-68
2021/07/22 10:57:35;;;;;;;10.85;7.03;;;26.30;49.50;;;;;;5029013;28;20401;-69
2021/07/22 11:00:04;;;;;;;10.57;7.55;;;26.40;50.40;;;;;;5029121;28;20053;-72
2021/07/22 11:02:44;;;;;;;12.52;6.60;;;26.30;50.20;;;;;;5027947;28;20427;-70
2021/07/22 11:05:26;;;;;;;9.73;6.85;;;26.30;51.00;;;;;;5030555;28;20026;-70
2021/07/22 11:08:16;;;;;;;9.95;7.03;;;26.30;49.60;;;;;;5029908;28;20049;-72
2021/07/22 11:11:02;;;;;;;10.40;6.55;;;26.50;47.90;;;;;;5030377;28;20042;-70
2021/07/22 11:13:37;;;;;;;9.20;6.75;;;26.60;48.00;;;;;;5031947;28;20506;-69
2021/07/22 11:16:22;;;;;;;10.32;7.07;;;26.30;48.10;;;;;;5023828;28;20527;-69
2021/07/22 11:18:58;;;;;;;10.63;7.03;;;26.40;47.20;;;;;;5030742;28;20132;-70
2021/07/22 11:21:34;;;;;;;11.73;6.88;;;26.40;47.70;;;;;;5033228;28;20090;-70
2021/07/22 11:24:18;;;;;;;11.23;6.53;;;26.60;49.30;;;;;;5028149;28;20091;-70
2021/07/22 11:26:47;;;;;;;;;;;26.80;46.90;;;;;;5024530;28;20044;-69
2021/07/22 11:29:18;;;;;;;9.38;6.80;;;26.80;47.60;;;;;;5029888;28;20392;-69
2021/07/22 11:31:51;;;;;;;10.98;7.70;;;26.60;49.00;;;;;;5033042;28;20124;-69
2021/07/22 11:34:33;;;;;;;12.13;7.38;;;26.40;48.00;;;;;;5029378;28;20042;-69
2021/07/22 11:37:00;;;;;;;12.32;7.25;;;26.60;47.40;;;;;;5026753;28;20514;-69
2021/07/22 11:39:36;;;;;;;12.27;7.93;;;26.70;47.30;;;;;;5028802;28;20037;-71
2021/07/22 11:42:03;;;;;;;12.90;8.27;;;26.60;47.60;;;;;;5024086;28;20056;-70
2021/07/22 11:44:29;;;;;;;10.38;7.05;;;27.10;48.10;;;;;;5028489;28;20041;-69
2021/07/22 11:46:55;;;;;;;10.00;7.65;;;27.00;47.80;;;;;;5023287;28;20033;-69
2021/07/22 11:49:20;;;;;;;12.52;8.63;;;27.20;49.00;;;;;;5025950;28;21909;-69
2021/07/22 11:51:49;;;;;;;11.25;8.15;;;27.50;47.50;;;;;;5027682;28;20041;-70
2021/07/22 11:54:18;;;;;;;12.02;8.40;;;27.30;48.50;;;;;;5025363;28;20038;-70
2021/07/22 11:56:47;;;;;;;11.80;8.23;;;27.00;49.90;;;;;;5027728;28;20037;-70
2021/07/22 11:59:13;;;;;;;11.40;8.50;;;26.70;48.20;;;;;;5024788;28;20148;-69
2021/07/22 12:01:53;;;;;;;11.23;7.47;;;26.80;48.40;;;;;;5029458;28;20425;-69
2021/07/22 12:04:31;;;;;;;11.27;7.80;;;26.90;48.20;;;;;;5024284;28;20369;-70
2021/07/22 12:06:59;;;;;;;10.38;7.40;;;27.10;48.80;;;;;;5029222;28;20031;-69
2021/07/22 12:09:25;;;;;;;12.65;8.55;;;27.00;49.10;;;;;;5025114;28;20033;-67
2021/07/22 12:12:01;;;;;;;10.18;7.22;;;26.70;49.70;;;;;;5028942;28;20052;-69
2021/07/22 12:14:37;;;;;;;10.60;7.85;;;27.10;49.40;;;;;;5013155;28;20412;-68
2021/07/22 12:17:04;;;;;;;11.55;7.72;;;27.50;48.20;;;;;;5010040;28;20057;-68
2021/07/22 12:19:32;;;;;;;10.88;7.60;;;27.40;48.60;;;;;;5003514;28;20486;-69
2021/07/22 12:22:23;;;;;;;11.68;7.88;;;27.10;48.00;;;;;;5007857;28;20045;-68
2021/07/22 12:24:54;;;;;;;11.30;8.45;;;26.90;48.50;;;;;;5007929;28;20076;-69
2021/07/22 12:27:43;;;;;;;12.00;8.20;;;27.20;48.20;;;;;;5007944;28;20117;-68
2021/07/22 12:30:33;;;;;;;12.02;7.78;;;27.30;49.30;;;;;;5005539;28;20037;-70